Time;durP1;ratioP1;P1;durP2;ratioP2;P2;SDS_P1;SDS_P2;PMS_P1;PMS_P2;Temp;Humidity;BMP_temperature;BMP_pressure;BME280_temperature;BME280_humidity;BME280_pressure;Samples;Min_cycle;Max_cycle;Signal;HPM_P1;HPM_P2
2020/12/11 00:02:56;;;;;;;52.67;19.33;;;;;;;0.39;88.38;99871.81;3730104;77;32759;-82
2020/12/11 00:07:56;;;;;;;49.67;19.62;;;;;;;0.37;88.34;99858.59;3723976;78;98134;-82
2020/12/11 00:12:57;;;;;;;50.27;19.37;;;;;;;0.39;88.38;99859.63;3730148;78;32662;-82
2020/12/11 00:17:58;;;;;;;50.43;21.47;;;;;;;0.42;88.22;99866.55;3723118;77;98438;-82
2020/12/11 00:23:03;;;;;;;44.40;18.60;;;;;;;0.45;88.08;99869.16;3731000;77;33208;-82
2020/12/11 00:28:02;;;;;;;45.98;18.05;;;;;;;0.44;88.18;99868.94;3702291;78;98003;-82
2020/12/11 00:33:03;;;;;;;51.03;18.43;;;;;;;0.48;88.19;99875.27;3722557;77;33994;-82
2020/12/11 00:38:04;;;;;;;48.78;18.92;;;;;;;0.46;88.15;99881.58;3721968;77;98309;-82
2020/12/11 00:43:05;;;;;;;49.50;18.97;;;;;;;0.42;88.17;99873.86;3720649;78;32728;-82
2020/12/11 00:48:07;;;;;;;50.97;19.73;;;;;;;0.46;88.36;99873.45;3714183;77;98920;-82
2020/12/11 00:53:07;;;;;;;53.33;20.63;;;;;;;0.48;88.48;99873.37;3749580;77;32682;-82
2020/12/11 00:58:09;;;;;;;44.47;17.90;;;;;;;0.53;88.50;99880.50;3760452;78;98490;-82
2020/12/11 01:03:10;;;;;;;49.13;18.57;;;;;;;0.50;88.31;99883.30;3787567;76;32804;-82
2020/12/11 01:08:11;;;;;;;47.73;18.07;;;;;;;0.52;88.50;99873.52;3735474;77;98562;-82
2020/12/11 01:13:12;;;;;;;55.37;20.30;;;;;;;0.47;88.32;99870.43;3737746;77;31739;-82
2020/12/11 01:18:12;;;;;;;46.37;17.43;;;;;;;0.51;88.24;99869.22;3736661;78;98032;-82
2020/12/11 01:23:13;;;;;;;53.10;19.83;;;;;;;0.44;88.34;99873.00;3746736;77;27505;-82
2020/12/11 01:28:14;;;;;;;52.67;19.43;;;;;;;0.52;88.58;99859.43;3759016;78;98421;-82
2020/12/11 01:33:15;;;;;;;46.30;19.17;;;;;;;0.47;88.56;99853.38;3731769;77;25911;-83
2020/12/11 01:38:16;;;;;;;48.90;19.37;;;;;;;0.64;88.65;99854.66;3720928;78;98052;-83
2020/12/11 01:43:20;;;;;;;50.00;18.93;;;;;;;0.81;88.70;99846.45;3732035;77;25945;-83
2020/12/11 01:48:21;;;;;;;50.33;20.27;;;;;;;0.90;88.29;99852.08;3700227;79;98196;-82
2020/12/11 01:53:22;;;;;;;50.33;18.53;;;;;;;0.91;88.08;99849.61;3676734;79;25991;-82
2020/12/11 01:58:26;;;;;;;49.17;20.57;;;;;;;0.81;87.83;99835.08;3685464;78;98641;-82
2020/12/11 02:03:28;;;;;;;58.13;21.73;;;;;;;0.81;87.83;99835.08;3727102;78;27438;-82
2020/12/11 02:08:29;;;;;;;46.00;18.03;;;;;;;0.76;88.02;99829.03;3702718;79;98408;-82
2020/12/11 02:13:30;;;;;;;53.37;20.90;;;;;;;0.78;88.11;99829.52;3717698;78;26194;-83
2020/12/11 02:18:31;;;;;;;52.53;21.07;;;;;;;0.73;87.93;99822.94;3717541;78;98108;-83
2020/12/11 02:23:33;;;;;;;56.87;22.20;;;;;;;0.71;88.20;99819.77;3721285;78;25925;-83
2020/12/11 02:28:35;;;;;;;54.43;20.53;;;;;;;0.69;88.14;99821.45;3711765;79;98129;-83
2020/12/11 02:33:35;;;;;;;58.00;22.17;;;;;;;0.50;88.10;99819.69;3735517;77;25925;-83
2020/12/11 02:38:36;;;;;;;57.13;21.50;;;;;;;0.42;88.49;99817.02;3738937;77;98495;-83
2020/12/11 02:43:37;;;;;;;68.33;25.97;;;;;;;0.51;89.06;99811.02;3733834;77;25997;-83
2020/12/11 02:48:38;;;;;;;61.90;23.67;;;;;;;0.70;89.03;99806.78;3761684;76;98168;-83
2020/12/11 02:53:39;;;;;;;57.10;20.43;;;;;;;0.68;88.93;99792.78;3704505;78;25919;-83
2020/12/11 02:58:40;;;;;;;61.27;21.47;;;;;;;0.77;88.80;99795.44;3697318;78;98256;-83
2020/12/11 03:03:44;;;;;;;60.87;23.53;;;;;;;0.78;88.71;99795.67;3699058;78;25911;-83
2020/12/11 03:08:45;;;;;;;60.43;22.03;;;;;;;0.67;88.49;99795.81;3703641;78;98306;-82
2020/12/11 03:13:46;;;;;;;68.97;27.33;;;;;;;0.55;88.51;99799.20;3700574;78;26354;-83
2020/12/11 03:18:48;;;;;;;59.13;23.20;;;;;;;0.41;88.89;99787.82;3690214;77;98658;-83
2020/12/11 03:23:49;;;;;;;54.90;21.27;;;;;;;0.37;89.15;99787.42;3698793;78;26507;-82
2020/12/11 03:28:51;;;;;;;62.03;22.23;;;;;;;0.41;89.25;99787.82;3690383;78;98514;-83
2020/12/11 03:33:52;;;;;;;58.93;22.30;;;;;;;0.49;89.23;99785.63;3691209;79;26491;-82
2020/12/11 03:38:53;;;;;;;55.40;20.53;;;;;;;0.54;89.29;99788.69;3691089;78;98514;-82
2020/12/11 03:43:57;;;;;;;64.25;25.17;;;;;;;0.55;89.19;99784.89;3700753;78;26240;-82
2020/12/11 03:48:57;;;;;;;50.77;19.40;;;;;;;0.52;89.28;99782.27;3715390;77;98190;-82
2020/12/11 03:53:57;;;;;;;58.13;21.70;;;;;;;0.31;89.18;99775.20;3811500;76;26264;-82
2020/12/11 03:58:58;;;;;;;56.27;21.63;;;;;;;0.21;89.45;99784.47;3747642;78;98448;-82
2020/12/11 04:03:59;;;;;;;57.90;22.50;;;;;;;0.29;89.87;99776.86;3736366;77;26535;-82
2020/12/11 04:09:00;;;;;;;54.67;22.63;;;;;;;0.29;89.56;99774.16;3797052;76;98458;-83
2020/12/11 04:14:03;;;;;;;61.57;22.77;;;;;;;0.24;89.72;99776.27;3798471;76;26257;-82
2020/12/11 04:19:04;;;;;;;61.70;20.83;;;;;;;0.19;89.84;99779.15;3802152;76;98133;-82
2020/12/11 04:24:05;;;;;;;57.57;23.57;;;;;;;0.18;89.90;99771.58;3802423;76;25924;-82
2020/12/11 04:29:05;;;;;;;58.77;20.90;;;;;;;0.19;90.10;99771.03;3792035;76;98753;-82
2020/12/11 04:34:07;;;;;;;63.63;22.10;;;;;;;0.39;90.35;99773.80;3804745;77;26109;-83
2020/12/11 04:39:08;;;;;;;60.33;24.63;;;;;;;0.44;89.90;99777.68;3800953;76;98023;-82
2020/12/11 04:44:12;;;;;;;59.87;22.50;;;;;;;0.48;90.04;99779.17;3807650;77;26149;-83
2020/12/11 04:49:13;;;;;;;59.63;24.70;;;;;;;0.62;89.95;99772.98;3794493;77;98623;-83
2020/12/11 04:54:20;;;;;;;62.53;21.73;;;;;;;0.59;89.80;99774.97;3807485;76;25925;-83
2020/12/11 04:59:21;;;;;;;69.37;26.23;;;;;;;0.49;89.36;99769.92;3791350;76;98416;-83
2020/12/11 05:04:24;;;;;;;56.50;20.80;;;;;;;0.29;89.67;99767.97;3800655;76;26001;-83
2020/12/11 05:09:24;;;;;;;60.33;22.73;;;;;;;0.26;89.82;99762.65;3805801;76;98490;-83
2020/12/11 05:14:31;;;;;;;59.50;23.13;;;;;;;0.28;90.09;99754.21;3809422;76;26373;-84
2020/12/11 05:19:34;;;;;;;60.70;24.97;;;;;;;0.28;90.12;99760.40;3790281;76;98513;-83
2020/12/11 05:24:48;;;;;;;68.43;25.50;;;;;;;0.49;90.10;99753.14;3778106;76;27503;-83
2020/12/11 05:29:49;;;;;;;65.93;24.93;;;;;;;0.46;89.94;99755.70;3801036;76;98361;-84
2020/12/11 05:34:50;;;;;;;68.53;28.47;;;;;;;0.29;90.00;99753.86;3804100;76;26882;-83
2020/12/11 05:39:51;;;;;;;75.73;27.10;;;;;;;0.25;90.41;99754.84;3799522;76;98661;-83
2020/12/11 05:44:52;;;;;;;75.80;25.60;;;;;;;0.28;90.76;99750.93;3798346;77;26623;-83
2020/12/11 05:49:53;;;;;;;75.10;26.23;;;;;;;0.40;90.71;99748.89;3785396;76;98456;-83
2020/12/11 05:54:54;;;;;;;88.57;29.30;;;;;;;0.45;90.56;99746.78;3806840;77;25995;-83
2020/12/11 05:59:55;;;;;;;74.50;28.37;;;;;;;0.42;90.93;99739.88;3804618;76;98351;-83
2020/12/11 06:04:57;;;;;;;81.20;28.97;;;;;;;0.53;90.96;99746.50;3804919;76;25877;-83
2020/12/11 06:09:58;;;;;;;82.43;26.37;;;;;;;0.61;90.96;99740.27;3796086;76;98332;-83
2020/12/11 06:15:10;;;;;;;98.63;33.90;;;;;;;0.61;90.82;99751.88;3806359;76;25932;-83
2020/12/11 06:20:15;;;;;;;87.17;31.62;;;;;;;0.59;90.67;99750.06;3795022;76;98346;-83
2020/12/11 06:25:31;;;;;;;83.60;28.30;;;;;;;0.49;90.93;99747.73;3811743;76;27439;-83
2020/12/11 06:30:33;;;;;;;84.87;29.98;;;;;;;0.59;91.05;99746.55;3798753;77;98304;-83
2020/12/11 06:35:34;;;;;;;78.73;28.33;;;;;;;0.58;90.96;99748.48;3803693;76;27672;-83
2020/12/11 06:40:49;;;;;;;81.13;30.30;;;;;;;0.71;91.00;99733.89;3796348;76;98613;-84
2020/12/11 06:46:11;;;;;;;74.10;27.77;;;;;;;0.66;90.52;99737.37;3805277;77;27509;-83
2020/12/11 06:51:12;;;;;;;88.47;30.53;;;;;;;0.50;90.79;99736.34;3771569;76;98355;-83
2020/12/11 06:56:37;;;;;;;70.90;24.23;;;;;;;0.56;90.81;99743.16;3805165;76;26247;-83
2020/12/11 07:01:38;;;;;;;72.70;26.07;;;;;;;0.49;90.59;99745.02;3792339;76;97877;-82
2020/12/11 07:06:51;;;;;;;76.27;27.33;;;;;;;0.52;90.85;99748.44;3803814;76;26243;-83
2020/12/11 07:11:52;;;;;;;70.73;25.77;;;;;;;0.52;90.79;99746.28;3805279;75;98308;-83
2020/12/11 07:16:53;;;;;;;80.53;30.47;;;;;;;0.58;90.65;99738.20;3804400;76;26292;-83
2020/12/11 07:21:55;;;;;;;74.43;29.73;;;;;;;0.45;90.69;99739.23;3804543;76;98384;-84
2020/12/11 07:27:04;;;;;;;83.23;31.60;;;;;;;0.48;90.70;99727.74;3804619;76;25945;-83
2020/12/11 07:32:05;;;;;;;70.63;27.00;;;;;;;0.51;90.93;99729.81;3795074;76;98377;-83
2020/12/11 07:37:06;;;;;;;73.30;32.40;;;;;;;0.52;90.82;99733.55;3822998;76;26819;-83
2020/12/11 07:42:09;;;;;;;82.53;32.13;;;;;;;0.52;90.82;99740.86;3805789;76;98388;-83
2020/12/11 07:47:13;;;;;;;81.67;29.33;;;;;;;0.64;91.07;99740.39;3814339;76;27462;-83
2020/12/11 07:52:22;;;;;;;81.63;28.90;;;;;;;0.73;90.67;99728.16;3771811;76;98256;-81
2020/12/11 07:57:20;;;;;;;88.40;34.10;;;;;;;0.75;90.60;99729.41;3764667;77;26371;-80
2020/12/11 08:02:23;;;;;;;81.85;29.45;;;;;;;0.71;90.43;99731.77;3752670;77;97956;-81
2020/12/11 08:07:25;;;;;;;89.03;33.80;;;;;;;0.68;90.32;99722.38;3766422;77;28347;-80
2020/12/11 08:12:27;;;;;;;94.97;35.17;;;;;;;0.70;90.56;99716.06;3752407;77;98408;-81
2020/12/11 08:17:31;;;;;;;83.13;31.23;;;;;;;0.76;90.44;99719.36;3748836;77;27872;-81
2020/12/11 08:22:39;;;;;;;86.30;34.93;;;;;;;0.76;90.26;99722.06;3760970;77;97981;-81
2020/12/11 08:27:40;;;;;;;101.63;37.73;;;;;;;0.86;90.39;99720.33;3765357;76;98492;-81
2020/12/11 08:32:43;;;;;;;91.10;35.67;;;;;;;0.89;90.19;99718.33;3656900;79;26379;-82
2020/12/11 08:37:58;;;;;;;90.13;33.23;;;;;;;0.96;90.20;99720.74;3747600;77;98559;-81
2020/12/11 08:43:19;;;;;;;98.47;37.47;;;;;;;1.09;90.19;99720.25;3757224;77;27519;-81
2020/12/11 08:48:32;;;;;;;91.05;33.10;;;;;;;1.17;89.78;99713.41;3751788;77;98470;-81
2020/12/11 08:53:28;;;;;;;95.77;36.83;;;;;;;1.10;89.50;99714.47;3729874;77;26020;-81
2020/12/11 08:58:29;;;;;;;85.70;33.58;;;;;;;1.09;89.60;99709.41;3726352;77;98125;-81
2020/12/11 09:03:30;;;;;;;77.47;33.00;;;;;;;1.09;89.47;99708.05;3680326;78;26542;-82
2020/12/11 09:08:31;;;;;;;68.83;27.73;;;;;;;1.08;89.27;99700.48;3771999;76;98433;-83
2020/12/11 09:13:32;;;;;;;70.93;26.83;;;;;;;1.07;89.28;99696.19;3784548;76;26290;-82
2020/12/11 09:18:33;;;;;;;84.65;34.90;;;;;;;1.15;89.37;99690.47;3786192;76;98223;-82
2020/12/11 09:23:34;;;;;;;82.27;33.77;;;;;;;1.20;89.60;99692.39;3790880;76;25963;-82
2020/12/11 09:28:35;;;;;;;78.87;30.47;;;;;;;1.19;89.32;99685.95;3779052;76;98549;-82
2020/12/11 09:33:39;;;;;;;81.63;32.93;;;;;;;1.25;88.99;99685.97;3781749;76;26278;-82
2020/12/11 09:38:40;;;;;;;81.47;31.60;;;;;;;1.18;88.95;99674.88;3794693;76;98274;-83
2020/12/11 09:49:35;;;;;;;102.10;39.70;;;;;;;1.29;89.11;99673.34;3780734;76;98434;-83
2020/12/11 09:59:14;;;;;;;85.30;37.87;;;;;;;1.51;88.88;99660.20;3791160;76;98426;-81
2020/12/11 10:04:11;;;;;;;75.63;32.50;;;;;;;1.59;88.64;99647.68;3811627;76;25992;-82
2020/12/11 10:09:12;;;;;;;86.07;35.23;;;;;;;1.57;88.01;99643.14;3811841;76;98110;-82
2020/12/11 10:19:14;;;;;;;78.37;33.53;;;;;;;1.41;87.80;99644.36;3803356;76;98471;-82
2020/12/11 10:24:18;;;;;;;87.27;36.67;;;;;;;1.42;88.24;99636.45;3799573;76;26473;-82
2020/12/11 10:29:19;;;;;;;87.60;36.17;;;;;;;1.64;87.95;99646.88;3801449;76;98578;-82
2020/12/11 10:34:20;;;;;;;83.80;34.67;;;;;;;1.77;87.89;99635.49;3798701;76;25908;-82
2020/12/11 10:39:21;;;;;;;76.63;32.93;;;;;;;1.64;87.47;99629.84;3792990;76;98217;-82
2020/12/11 10:44:22;;;;;;;78.97;29.30;;;;;;;1.69;87.73;99620.13;3810725;76;25991;-82
2020/12/11 10:49:24;;;;;;;88.43;34.47;;;;;;;1.72;87.73;99617.53;3810295;76;98477;-83
2020/12/11 10:54:27;;;;;;;88.53;38.23;;;;;;;1.63;87.06;99606.53;3781678;76;26504;-82
2020/12/11 10:59:27;;;;;;;92.87;37.13;;;;;;;1.58;87.44;99596.71;3730719;77;98580;-82
2020/12/11 11:04:29;;;;;;;92.10;36.90;;;;;;;1.71;87.57;99598.88;3730816;77;25900;-83
2020/12/11 11:09:44;;;;;;;87.60;33.60;;;;;;;1.90;87.84;99592.31;3735625;77;98247;-82
2020/12/11 11:30:28;;;;;;;94.33;37.70;;;;;;;1.82;87.12;99580.47;3751063;78;97949;-80
2020/12/11 11:35:30;;;;;;;83.90;36.27;;;;;;;1.73;86.93;99568.93;3761919;77;27731;-81
2020/12/11 11:40:31;;;;;;;81.73;36.73;;;;;;;1.73;87.23;99561.34;3723916;78;98447;-81
2020/12/11 11:45:37;;;;;;;83.97;34.30;;;;;;;1.71;86.82;99560.91;3719767;77;26339;-81
2020/12/11 11:51:05;;;;;;;83.62;33.33;;;;;;;1.72;87.39;99559.22;3707253;77;98483;-82
2020/12/11 11:55:41;;;;;;;75.10;30.13;;;;;;;1.66;87.35;99553.80;3669430;79;26937;-82
2020/12/11 12:00:42;;;;;;;81.08;32.58;;;;;;;1.66;87.61;99549.73;3679649;77;98612;-82
2020/12/11 12:05:43;;;;;;;87.57;37.40;;;;;;;1.68;87.80;99551.53;3675410;78;26455;-81
2020/12/11 12:10:44;;;;;;;86.13;33.87;;;;;;;1.64;87.84;99540.35;3669990;78;98512;-82
2020/12/11 12:15:45;;;;;;;88.27;36.43;;;;;;;1.68;88.03;99540.67;3694740;78;26045;-81
2020/12/11 12:20:53;;;;;;;91.23;33.20;;;;;;;1.78;88.27;99542.13;3674687;78;98490;-82
2020/12/11 12:31:11;;;;;;;85.83;33.40;;;;;;;1.76;88.55;99534.91;3680563;78;98201;-81
2020/12/11 12:46:46;;;;;;;96.03;38.43;;;;;;;1.89;88.75;99513.41;3670164;78;27530;-82
2020/12/11 12:51:47;;;;;;;107.92;44.27;;;;;;;1.98;88.61;99506.72;3678123;78;98228;-82
2020/12/11 12:56:52;;;;;;;99.53;40.20;;;;;;;1.92;88.60;99505.37;3705355;78;26069;-82
2020/12/11 13:02:08;;;;;;;100.70;41.23;;;;;;;1.94;89.03;99506.40;3695514;78;98387;-82
2020/12/11 13:06:53;;;;;;;100.17;37.90;;;;;;;1.88;89.04;99500.98;3710317;78;25967;-81
2020/12/11 13:11:54;;;;;;;87.83;36.83;;;;;;;1.96;89.27;99494.62;3697973;78;98285;-80
2020/12/11 13:16:55;;;;;;;83.67;33.93;;;;;;;2.00;89.00;99484.67;3699488;78;26465;-82
2020/12/11 13:27:24;;;;;;;87.97;37.13;;;;;;;1.98;89.52;99482.30;3699060;78;25879;-81
2020/12/11 13:32:29;;;;;;;89.73;35.07;;;;;;;2.02;89.58;99479.72;3703981;78;98626;-82
2020/12/11 13:37:30;;;;;;;90.95;37.67;;;;;;;2.08;89.52;99483.19;3713611;78;27538;-82
2020/12/11 13:42:31;;;;;;;100.33;40.00;;;;;;;2.09;89.86;99477.20;3602891;79;98332;-82
2020/12/11 13:47:32;;;;;;;98.00;40.20;;;;;;;2.08;89.87;99483.77;3687265;78;25898;-83
2020/12/11 13:52:33;;;;;;;86.43;39.10;;;;;;;2.09;89.94;99475.26;3714063;77;98305;-81
2020/12/11 13:57:34;;;;;;;83.30;36.03;;;;;;;2.09;90.08;99477.97;3789921;76;26121;-81
2020/12/11 14:02:34;;;;;;;85.07;36.03;;;;;;;2.15;90.19;99477.18;3791343;76;98128;-80
2020/12/11 14:07:36;;;;;;;85.67;37.60;;;;;;;2.25;90.17;99472.05;3807764;76;26312;-81
2020/12/11 14:12:37;;;;;;;83.37;34.57;;;;;;;2.36;90.35;99474.48;3793954;76;26761;-83
2020/12/11 14:18:01;;;;;;;101.63;40.90;;;;;;;2.46;90.09;99471.28;3789745;76;98677;-81
2020/12/11 14:22:55;;;;;;;89.73;38.87;;;;;;;2.54;89.96;99473.63;3803044;76;26037;-82
2020/12/11 14:27:55;;;;;;;96.60;39.13;;;;;;;2.56;89.77;99468.66;3798146;76;98613;-82
2020/12/11 14:32:56;;;;;;;81.80;32.77;;;;;;;2.45;89.89;99464.28;3689069;78;26322;-82
2020/12/11 14:38:01;;;;;;;85.15;36.23;;;;;;;2.35;90.11;99458.56;3708402;77;98267;-82
2020/12/11 14:42:59;;;;;;;80.43;34.13;;;;;;;2.36;90.31;99464.98;3727066;77;27005;-81
2020/12/11 14:48:00;;;;;;;87.37;36.60;;;;;;;2.40;90.50;99459.68;3733824;77;98103;-81
2020/12/11 14:53:01;;;;;;;74.60;33.67;;;;;;;2.56;90.62;99465.94;3740558;77;26793;-81
2020/12/11 14:58:06;;;;;;;87.77;38.97;;;;;;;2.61;90.39;99466.47;3734463;77;98579;-81
2020/12/11 15:03:07;;;;;;;86.17;37.27;;;;;;;2.69;90.60;99468.22;3749196;77;26002;-81
2020/12/11 15:08:08;;;;;;;87.80;36.47;;;;;;;2.76;90.36;99458.12;3741613;79;97375;-81
2020/12/11 15:13:09;;;;;;;88.20;37.63;;;;;;;2.73;90.24;99462.91;3739834;77;25967;-81
2020/12/11 15:18:10;;;;;;;90.80;39.53;;;;;;;2.65;90.49;99471.98;3740366;77;98561;-81
2020/12/11 15:23:10;;;;;;;78.60;36.95;;;;;;;2.60;90.61;99470.33;3743592;77;27921;-80
2020/12/11 15:28:12;;;;;;;87.57;38.07;;;;;;;2.67;90.67;99467.79;3735070;77;98598;-82
2020/12/11 15:33:13;;;;;;;88.47;37.40;;;;;;;2.74;90.66;99467.20;3745518;77;25896;-82
2020/12/11 15:38:14;;;;;;;90.65;42.78;;;;;;;2.90;90.74;99465.29;3707191;79;98769;-83
2020/12/11 15:43:15;;;;;;;90.33;41.63;;;;;;;2.95;90.41;99465.80;3818487;76;26133;-81
2020/12/11 15:48:16;;;;;;;101.30;47.77;;;;;;;2.95;90.53;99477.27;3798985;76;98517;-82
2020/12/11 15:53:17;;;;;;;87.80;37.97;;;;;;;2.98;90.32;99475.19;3802070;76;26006;-83
2020/12/11 15:58:18;;;;;;;77.67;37.60;;;;;;;2.96;90.34;99466.61;3778676;76;98581;-82
2020/12/11 16:03:19;;;;;;;70.67;34.40;;;;;;;2.92;90.30;99457.56;3713043;78;33518;-82
2020/12/11 16:08:20;;;;;;;62.87;31.80;;;;;;;2.92;90.28;99458.92;3752209;77;98533;-82
2020/12/11 16:13:22;;;;;;;74.90;33.97;;;;;;;2.93;90.26;99459.94;3764928;77;33313;-81
2020/12/11 16:18:23;;;;;;;72.70;32.15;;;;;;;2.96;90.33;99458.45;3754737;77;98607;-82
2020/12/11 16:23:24;;;;;;;73.80;35.83;;;;;;;3.06;90.41;99453.27;3677542;79;33731;-82
2020/12/11 16:28:25;;;;;;;79.82;36.55;;;;;;;3.14;90.22;99452.88;3771025;76;98521;-82
2020/12/11 16:33:28;;;;;;;69.73;34.80;;;;;;;3.19;90.09;99458.86;3769296;77;33401;-83
2020/12/11 16:38:29;;;;;;;66.87;33.03;;;;;;;3.18;89.90;99453.77;3744112;76;98528;-82
2020/12/11 16:43:35;;;;;;;75.13;34.47;;;;;;;3.06;89.94;99449.78;3768943;77;33335;-81
2020/12/11 16:48:36;;;;;;;67.77;30.03;;;;;;;2.97;90.11;99451.32;3765059;77;98521;-82
2020/12/11 16:53:36;;;;;;;70.43;31.83;;;;;;;2.95;90.19;99450.09;3762366;76;33364;-82
2020/12/11 16:58:37;;;;;;;69.37;31.97;;;;;;;3.00;90.23;99448.47;3801682;76;98574;-82
2020/12/11 17:03:49;;;;;;;87.10;37.40;;;;;;;3.05;90.28;99449.54;3790788;77;33330;-82
2020/12/11 17:08:50;;;;;;;85.93;36.43;;;;;;;3.15;90.17;99451.73;3778414;76;98977;-80
2020/12/11 17:13:50;;;;;;;96.37;42.40;;;;;;;3.19;89.93;99443.11;3790638;76;33275;-81
2020/12/11 17:18:52;;;;;;;84.83;37.63;;;;;;;3.11;89.88;99443.50;3784585;76;98230;-82
2020/12/11 17:24:17;;;;;;;89.17;39.17;;;;;;;3.09;90.01;99439.00;3795197;76;33792;-84
2020/12/11 17:29:19;;;;;;;78.95;35.75;;;;;;;3.07;89.89;99443.20;3746540;76;98890;-84
2020/12/11 17:39:44;;;;;;;72.20;31.70;;;;;;;2.92;90.03;99435.27;3778730;76;98126;-84
2020/12/11 17:44:46;;;;;;;59.57;28.30;;;;;;;2.90;89.96;99430.73;3789127;76;33410;-83
2020/12/11 17:49:48;;;;;;;74.37;32.43;;;;;;;2.88;89.77;99415.92;3796229;76;98432;-83
2020/12/11 17:54:49;;;;;;;65.27;30.13;;;;;;;2.88;89.85;99417.28;3798862;77;33264;-84
2020/12/11 17:59:49;;;;;;;69.67;31.10;;;;;;;2.90;89.59;99417.73;3787793;77;99157;-84
2020/12/11 18:04:50;;;;;;;68.53;32.87;;;;;;;2.84;89.47;99416.42;3794149;76;33931;-84
2020/12/11 18:09:52;;;;;;;64.77;29.60;;;;;;;2.76;89.48;99420.89;3791617;76;98418;-82
2020/12/11 18:14:53;;;;;;;57.73;27.40;;;;;;;2.75;89.52;99419.88;3805563;77;33350;-83
2020/12/11 18:19:56;;;;;;;64.00;26.83;;;;;;;2.71;89.47;99425.77;3800231;76;98521;-82
2020/12/11 18:24:57;;;;;;;61.37;28.17;;;;;;;2.74;89.45;99425.86;3796571;77;33358;-82
2020/12/11 18:30:00;;;;;;;55.17;28.03;;;;;;;2.77;89.19;99425.73;3800270;76;98628;-82
2020/12/11 18:35:01;;;;;;;64.73;30.07;;;;;;;2.74;89.12;99419.06;3792392;76;33758;-83
2020/12/11 18:40:03;;;;;;;68.60;29.97;;;;;;;2.69;89.08;99415.25;3800660;76;98460;-81
2020/12/11 18:45:04;;;;;;;63.53;29.53;;;;;;;2.63;89.09;99414.52;3801102;76;33282;-82
2020/12/11 18:50:06;;;;;;;63.53;29.23;;;;;;;2.60;89.21;99406.50;3802107;76;98764;-81
2020/12/11 18:55:21;;;;;;;65.37;30.83;;;;;;;2.61;89.11;99409.98;3812175;76;33296;-81
2020/12/11 19:00:09;;;;;;;65.87;29.50;;;;;;;2.66;89.21;99402.39;3802272;76;98501;-82
2020/12/11 19:05:13;;;;;;;62.93;30.60;;;;;;;2.76;89.23;99409.22;3818575;76;33879;-82
2020/12/11 19:10:14;;;;;;;60.47;29.87;;;;;;;2.85;88.80;99401.70;3802780;76;98554;-82
2020/12/11 19:15:16;;;;;;;61.50;30.40;;;;;;;2.83;88.68;99397.16;3813358;76;33434;-83
2020/12/11 19:20:17;;;;;;;59.03;27.30;;;;;;;2.81;88.58;99400.81;3804327;76;98671;-84
2020/12/11 19:25:18;;;;;;;56.97;26.50;;;;;;;2.78;88.58;99400.17;3814127;76;33855;-80
2020/12/11 19:30:19;;;;;;;60.90;28.45;;;;;;;2.77;88.76;99402.08;3794473;76;98327;-80
2020/12/11 19:35:20;;;;;;;64.80;27.05;;;;;;;2.80;88.62;99391.86;3814858;76;33705;-81
2020/12/11 19:40:21;;;;;;;54.63;25.73;;;;;;;2.84;88.70;99400.89;3811812;76;98377;-80
2020/12/11 19:45:22;;;;;;;61.70;27.77;;;;;;;2.86;88.73;99380.17;3811539;76;32445;-83
2020/12/11 19:50:23;;;;;;;66.83;30.60;;;;;;;2.95;88.52;99391.66;3801419;76;97988;-81
2020/12/11 19:55:24;;;;;;;61.07;28.77;;;;;;;2.93;88.45;99379.78;3803623;76;30533;-81
2020/12/11 20:00:25;;;;;;;60.93;27.63;;;;;;;2.87;88.48;99373.03;3801189;76;98124;-81
2020/12/11 20:11:07;;;;;;;61.07;27.30;;;;;;;2.79;88.67;99363.70;3590210;79;98522;-81
2020/12/11 20:16:08;;;;;;;63.57;28.93;;;;;;;2.76;88.79;99365.20;3583297;81;31786;-81
2020/12/11 20:21:09;;;;;;;71.17;28.90;;;;;;;2.77;88.91;99362.69;3577495;80;98394;-81
2020/12/11 20:26:10;;;;;;;71.27;30.03;;;;;;;2.83;88.86;99363.20;3587037;81;31853;-83
2020/12/11 20:31:12;;;;;;;72.53;32.23;;;;;;;2.78;88.81;99360.19;3590365;80;98456;-82
2020/12/11 20:36:13;;;;;;;71.23;29.93;;;;;;;2.75;88.81;99356.83;3582231;81;31759;-81
2020/12/11 20:41:15;;;;;;;76.83;32.47;;;;;;;2.67;88.86;99358.38;3580714;78;98490;-82
2020/12/11 20:46:22;;;;;;;69.70;30.70;;;;;;;2.58;89.14;99350.36;3578239;81;31748;-81
2020/12/11 20:51:27;;;;;;;83.27;32.90;;;;;;;2.58;89.22;99348.23;3546988;81;98576;-81
2020/12/11 20:56:28;;;;;;;81.53;35.23;;;;;;;2.50;89.42;99339.13;3599027;81;32297;-85
2020/12/11 21:01:29;;;;;;;73.13;27.67;;;;;;;2.46;89.33;99340.95;3554293;81;98128;-82
2020/12/11 21:06:31;;;;;;;81.23;32.27;;;;;;;2.31;88.96;99342.30;3583962;81;31720;-83
2020/12/11 21:11:32;;;;;;;75.77;29.47;;;;;;;2.07;89.14;99357.38;3569300;81;97989;-82
2020/12/11 21:16:33;;;;;;;75.07;31.10;;;;;;;1.82;89.84;99355.88;3574370;81;31776;-81
2020/12/11 21:21:34;;;;;;;74.00;28.37;;;;;;;1.71;90.02;99369.70;3573828;81;98405;-81
2020/12/11 21:26:35;;;;;;;72.20;28.32;;;;;;;1.61;90.58;99356.62;3568162;81;32261;-81
2020/12/11 21:31:36;;;;;;;75.13;27.57;;;;;;;1.57;90.86;99356.53;3571974;81;98232;-81
2020/12/11 21:36:37;;;;;;;79.97;29.43;;;;;;;1.58;91.41;99349.97;3573615;81;30943;-82
2020/12/11 21:41:38;;;;;;;69.17;27.40;;;;;;;1.47;91.45;99352.94;3539250;80;98377;-82
2020/12/11 21:46:39;;;;;;;67.87;26.43;;;;;;;1.41;91.80;99350.24;3577048;81;28906;-81
2020/12/11 21:51:40;;;;;;;69.63;25.10;;;;;;;1.46;92.15;99355.42;3567075;81;98037;-82
2020/12/11 21:56:45;;;;;;;65.07;23.57;;;;;;;1.47;91.92;99365.13;3544093;81;35081;-82
2020/12/11 22:01:51;;;;;;;63.43;21.30;;;;;;;1.46;92.01;99355.98;3569860;80;98338;-82
2020/12/11 22:06:52;;;;;;;62.78;23.52;;;;;;;1.53;92.12;99361.05;3562357;81;26836;-82
2020/12/11 22:11:53;;;;;;;68.40;24.13;;;;;;;1.44;92.26;99348.77;3533429;80;98015;-82
2020/12/11 22:16:54;;;;;;;63.97;24.03;;;;;;;1.41;92.79;99342.11;3563157;81;35893;-83
2020/12/11 22:21:55;;;;;;;62.33;24.17;;;;;;;1.41;92.79;99342.11;3565695;80;97989;-82
2020/12/11 22:26:56;;;;;;;64.27;22.57;;;;;;;1.46;92.80;99335.65;3573823;81;34910;-80
2020/12/11 22:31:57;;;;;;;57.20;21.97;;;;;;;1.51;92.89;99334.86;3561508;81;98322;-81
2020/12/11 22:36:58;;;;;;;55.90;20.57;;;;;;;1.52;92.99;99334.27;3573942;81;35040;-82
2020/12/11 22:42:02;;;;;;;54.80;19.97;;;;;;;1.61;92.97;99329.52;3571365;80;97965;-82
2020/12/11 22:47:02;;;;;;;60.67;21.13;;;;;;;1.55;93.28;99322.75;3581340;81;34943;-81
2020/12/11 22:52:03;;;;;;;52.83;19.10;;;;;;;1.53;93.15;99320.38;3564262;80;98300;-81
2020/12/11 22:57:06;;;;;;;47.73;19.90;;;;;;;1.57;93.06;99329.97;3571930;81;34992;-81
2020/12/11 23:02:07;;;;;;;57.10;20.20;;;;;;;1.55;93.75;99317.33;3559862;81;98663;-82
2020/12/11 23:07:08;;;;;;;49.93;19.27;;;;;;;1.56;93.43;99320.27;3576127;81;35566;-81
2020/12/11 23:12:08;;;;;;;60.17;21.30;;;;;;;1.65;93.30;99326.34;3555182;80;98310;-81
2020/12/11 23:17:10;;;;;;;52.10;18.03;;;;;;;1.65;93.31;99321.69;3567597;81;35256;-81
2020/12/11 23:22:12;;;;;;;50.33;18.97;;;;;;;1.58;93.75;99328.27;3570847;81;98297;-81
2020/12/11 23:27:13;;;;;;;50.23;18.70;;;;;;;1.54;93.78;99330.09;3572825;81;35041;-81
2020/12/11 23:32:14;;;;;;;51.73;19.07;;;;;;;1.54;93.66;99323.89;3565804;80;98375;-81
2020/12/11 23:37:15;;;;;;;54.07;20.80;;;;;;;1.44;93.49;99299.97;3568928;81;34985;-84
2020/12/11 23:42:16;;;;;;;54.87;20.17;;;;;;;1.44;93.49;99299.97;3557328;81;98361;-84
2020/12/11 23:47:17;;;;;;;51.73;19.23;;;;;;;1.60;93.74;99325.23;3561312;81;35457;-84
2020/12/11 23:52:18;;;;;;;58.80;21.03;;;;;;;1.65;93.48;99320.92;3557072;81;98473;-83
2020/12/11 23:57:19;;;;;;;50.67;19.48;;;;;;;1.69;93.43;99327.23;3571007;81;34925;-82
